createdAt,value
2018-07-11T00:04:05.209Z,16.57
2018-07-11T00:09:08.873Z,15.17
2018-07-11T00:14:20.736Z,16.43
2018-07-11T00:19:26.695Z,17.03
2018-07-11T00:24:30.513Z,14.98
2018-07-11T00:29:34.386Z,15.43
2018-07-11T00:34:42.870Z,16.90
2018-07-11T00:39:48.238Z,20.75
2018-07-11T00:45:02.525Z,19.77
2018-07-11T00:50:06.580Z,19.57
2018-07-11T00:55:10.388Z,19.10
2018-07-11T01:00:14.721Z,18.27
2018-07-11T01:05:19.377Z,18.32
2018-07-11T01:10:31.126Z,19.40
2018-07-11T01:27:05.897Z,17.17
2018-07-11T01:32:14.311Z,16.32
2018-07-11T01:37:24.067Z,17.07
2018-07-11T01:42:28.800Z,17.60
2018-07-11T01:47:45.260Z,16.93
2018-07-11T01:53:00.914Z,17.95
2018-07-11T01:58:05.979Z,17.25
2018-07-11T02:03:11.913Z,15.68
2018-07-11T02:08:22.800Z,16.93
2018-07-11T02:13:27.478Z,18.55
2018-07-11T02:18:35.558Z,18.50
2018-07-11T02:46:15.967Z,18.10
2018-07-11T02:51:26.801Z,19.50
2018-07-11T02:56:30.962Z,18.82
2018-07-11T03:01:35.477Z,17.33
2018-07-11T03:06:39.428Z,17.07
2018-07-11T03:11:43.704Z,15.97
2018-07-11T03:16:48.487Z,17.80
2018-07-11T03:21:59.520Z,15.98
2018-07-11T03:27:03.624Z,16.60
2018-07-11T03:38:45.562Z,18.55
2018-07-11T03:43:52.856Z,17.80
2018-07-11T03:49:03.138Z,18.50
2018-07-11T03:54:17.580Z,17.52
2018-07-11T04:05:04.808Z,17.75
2018-07-11T04:10:10.375Z,20.17
2018-07-11T04:15:16.168Z,21.05
2018-07-11T04:20:23.619Z,18.92
2018-07-11T04:25:33.637Z,20.72
2018-07-11T04:30:42.415Z,20.00
2018-07-11T04:35:50.872Z,19.32
2018-07-11T04:40:58.068Z,18.40
2018-07-11T04:46:04.633Z,18.05
2018-07-11T04:51:09.683Z,19.60
2018-07-11T04:56:13.178Z,20.37
2018-07-11T05:01:23.993Z,19.50
2018-07-11T05:06:27.598Z,18.48
2018-07-11T05:11:35.294Z,20.25
2018-07-11T05:16:40.814Z,19.30
2018-07-11T05:21:49.393Z,21.93
2018-07-11T05:26:53.019Z,19.77
2018-07-11T05:32:09.355Z,18.03
2018-07-11T05:37:14.269Z,17.67
2018-07-11T05:42:36.972Z,18.65
2018-07-11T05:47:40.599Z,18.33
2018-07-11T05:52:45.429Z,17.32
2018-07-11T05:57:49.221Z,17.45
2018-07-11T06:02:56.680Z,16.50
2018-07-11T06:08:05.615Z,17.35
2018-07-11T06:30:18.962Z,15.00
2018-07-11T06:41:09.424Z,16.60
2018-07-11T06:46:13.977Z,14.17
2018-07-11T06:51:18.590Z,14.95
2018-07-11T06:56:32.204Z,15.10
2018-07-11T07:01:44.690Z,14.73
2018-07-11T07:07:00.126Z,14.30
2018-07-11T07:12:05.135Z,13.80
2018-07-11T07:17:17.879Z,12.70
2018-07-11T07:22:22.436Z,12.55
2018-07-11T07:27:36.085Z,13.83
2018-07-11T07:32:41.093Z,12.50
2018-07-11T07:37:49.844Z,12.90
2018-07-11T07:42:58.352Z,13.03
2018-07-11T07:48:06.026Z,11.15
2018-07-11T07:58:44.613Z,10.43
2018-07-11T08:09:05.145Z,8.90
2018-07-11T08:14:13.034Z,6.97
2018-07-11T08:19:18.934Z,7.27
2018-07-11T08:24:39.029Z,6.85
2018-07-11T08:30:20.541Z,6.03
2018-07-11T08:37:39.996Z,6.25
2018-07-11T08:43:54.504Z,6.80
2018-07-11T08:50:09.096Z,6.80
2018-07-11T08:56:00.770Z,6.95
2018-07-11T09:01:21.512Z,5.10
2018-07-11T09:06:52.485Z,5.37
2018-07-11T09:12:40.920Z,5.40
2018-07-11T09:17:58.684Z,5.47
2018-07-11T09:23:30.176Z,4.87
2018-07-11T09:28:37.076Z,6.20
2018-07-11T09:33:40.960Z,6.10
2018-07-11T09:38:44.713Z,5.58
2018-07-11T09:43:48.584Z,4.20
2018-07-11T09:48:52.505Z,5.10
2018-07-11T10:07:45.746Z,4.45
2018-07-11T10:12:57.523Z,4.10
2018-07-11T10:23:35.470Z,4.75
2018-07-11T11:47:33.355Z,4.17
2018-07-11T11:52:37.157Z,4.10
2018-07-11T11:57:44.344Z,3.70
2018-07-11T12:02:59.539Z,5.80
2018-07-11T12:08:03.466Z,3.90
2018-07-11T12:13:10.356Z,4.00
2018-07-11T12:18:15.411Z,3.90
2018-07-11T12:23:19.613Z,3.62
2018-07-11T12:28:24.685Z,3.50
2018-07-11T12:33:34.372Z,3.37
2018-07-11T12:38:43.108Z,3.20
2018-07-11T12:43:46.652Z,3.70
2018-07-11T12:48:55.613Z,4.55
2018-07-11T12:54:00.496Z,4.30
2018-07-11T12:59:09.345Z,5.28
2018-07-11T13:04:16.281Z,5.20
2018-07-11T13:09:20.045Z,4.80
2018-07-11T13:14:24.739Z,9.00
2018-07-11T13:19:31.121Z,6.40
2018-07-11T13:24:35.907Z,5.37
2018-07-11T13:29:42.989Z,7.30
2018-07-11T13:35:09.470Z,6.22
2018-07-11T13:40:17.980Z,5.45
2018-07-11T13:45:24.863Z,5.20
2018-07-11T14:01:36.334Z,4.80
2018-07-11T14:06:40.360Z,5.22
2018-07-11T14:11:48.596Z,6.40
2018-07-11T14:22:07.969Z,4.62
2018-07-11T14:27:15.223Z,4.35
2018-07-11T14:32:19.295Z,3.60
2018-07-11T14:37:23.172Z,4.65
2018-07-11T14:42:27.883Z,5.85
2018-07-11T14:47:40.237Z,6.15
2018-07-11T14:52:45.238Z,5.47
2018-07-11T14:57:49.543Z,5.15
2018-07-11T15:02:53.958Z,4.80
2018-07-11T15:08:04.153Z,4.10
2018-07-11T15:13:10.021Z,5.70
2018-07-11T15:18:17.028Z,5.92
2018-07-11T15:23:24.358Z,5.53
2018-07-11T15:28:29.095Z,4.87
2018-07-11T15:33:32.738Z,6.27
2018-07-11T15:38:37.810Z,6.08
2018-07-11T15:43:41.419Z,5.40
2018-07-11T15:48:47.682Z,5.60
2018-07-11T15:53:57.172Z,5.40
2018-07-11T15:59:08.564Z,6.70
2018-07-11T16:04:20.413Z,5.05
2018-07-11T16:09:26.284Z,5.33
2018-07-11T16:15:09.911Z,5.10
2018-07-11T16:20:13.794Z,5.20
2018-07-11T16:25:17.499Z,6.03
2018-07-11T16:30:23.166Z,5.93
2018-07-11T16:35:26.891Z,5.00
2018-07-11T16:40:34.913Z,5.60
2018-07-11T16:45:41.801Z,6.40
2018-07-11T16:50:45.487Z,8.20
2018-07-11T17:23:30.462Z,8.00
2018-07-11T17:28:40.556Z,7.10
2018-07-11T17:33:44.199Z,7.20
2018-07-11T17:38:55.759Z,8.43
2018-07-11T17:44:05.292Z,7.37
2018-07-11T17:49:16.655Z,7.27
2018-07-11T17:54:21.292Z,7.80
2018-07-11T17:59:40.990Z,7.33
2018-07-11T18:04:53.188Z,8.55
2018-07-11T18:10:04.695Z,7.97
2018-07-11T18:15:18.546Z,9.70
2018-07-11T18:20:33.172Z,8.60
2018-07-11T18:26:19.353Z,10.30
2018-07-11T18:32:03.003Z,11.22
2018-07-11T18:37:14.970Z,10.38
2018-07-11T18:43:31.366Z,9.20
2018-07-11T18:48:46.159Z,9.33
2018-07-11T18:54:58.168Z,8.70
2018-07-11T19:01:12.048Z,9.70
2018-07-11T19:07:29.603Z,12.30
2018-07-11T19:13:41.421Z,11.00
2018-07-11T19:19:00.646Z,10.60
2018-07-11T19:24:09.769Z,11.60
2018-07-11T19:35:26.705Z,12.30
2018-07-11T19:40:45.937Z,14.80
2018-07-11T19:47:02.107Z,15.20
2018-07-11T19:52:15.853Z,14.00
2018-07-11T19:57:19.661Z,16.02
2018-07-11T20:02:29.152Z,18.33
2018-07-11T20:07:34.656Z,18.85
2018-07-11T20:12:38.416Z,19.52
2018-07-11T20:17:47.845Z,18.00
2018-07-11T20:23:14.288Z,18.80
2018-07-11T20:28:18.447Z,19.77
2018-07-11T20:33:22.197Z,22.20
2018-07-11T20:38:26.640Z,21.35
2018-07-11T20:43:31.488Z,21.20
2018-07-11T20:48:36.241Z,23.95
2018-07-11T20:53:42.005Z,21.05
2018-07-11T21:10:01.730Z,24.17
2018-07-11T21:26:28.858Z,24.23
2018-07-11T21:31:35.595Z,23.90
2018-07-11T21:36:43.510Z,26.25
2018-07-11T21:41:47.905Z,23.00
2018-07-11T21:47:00.300Z,25.50
2018-07-11T21:52:04.887Z,22.98
2018-07-11T21:57:09.008Z,23.02
2018-07-11T22:02:14.899Z,26.30
2018-07-11T22:07:19.112Z,24.52
2018-07-11T22:12:23.249Z,26.83
2018-07-11T22:17:46.049Z,24.55
2018-07-11T22:22:53.890Z,24.35
2018-07-11T22:27:59.325Z,25.08
2018-07-11T22:34:54.164Z,24.27
2018-07-11T22:40:02.080Z,25.52
2018-07-11T22:45:05.699Z,26.80
2018-07-11T22:50:10.028Z,25.03
2018-07-11T22:55:26.094Z,24.67
2018-07-11T23:00:44.319Z,24.83
2018-07-11T23:05:47.490Z,26.93
2018-07-11T23:10:58.172Z,25.45
2018-07-11T23:16:02.008Z,26.70
2018-07-11T23:21:06.971Z,28.90
2018-07-11T23:26:17.450Z,23.55
2018-07-11T23:53:45.377Z,25.50
